createdAt,value
2022-12-24T00:02:35.200Z,95566.00
2022-12-24T00:06:38.324Z,95571.00
2022-12-24T00:10:41.452Z,95568.00
2022-12-24T00:14:45.867Z,95581.00
2022-12-24T00:18:48.948Z,95571.00
2022-12-24T00:22:52.096Z,95567.00
2022-12-24T00:26:55.175Z,95576.00
2022-12-24T00:31:09.949Z,95572.00
2022-12-24T00:35:13.004Z,95576.00
2022-12-24T00:39:16.148Z,95583.00
2022-12-24T00:43:19.194Z,95596.00
2022-12-24T00:47:23.646Z,95591.00
2022-12-24T00:51:26.926Z,95597.00
2022-12-24T00:55:30.122Z,95601.00
2022-12-24T00:59:33.165Z,95596.00
2022-12-24T01:03:37.784Z,95597.00
2022-12-24T01:07:44.118Z,95592.00
2022-12-24T01:11:52.709Z,95592.00
2022-12-24T01:15:56.062Z,95593.00
2022-12-24T01:20:02.446Z,95609.00
2022-12-24T01:24:05.867Z,95611.00
2022-12-24T01:28:08.914Z,95621.00
2022-12-24T01:32:12.076Z,95641.00
2022-12-24T01:36:17.058Z,95659.00
2022-12-24T01:40:37.801Z,95658.00
2022-12-24T01:44:43.361Z,95671.00
2022-12-24T01:48:51.046Z,95684.00
2022-12-24T01:52:55.699Z,95689.00
2022-12-24T01:57:02.382Z,95681.00
2022-12-24T02:01:06.203Z,95683.00
2022-12-24T02:05:13.776Z,95691.00
2022-12-24T02:09:18.493Z,95692.00
2022-12-24T02:13:22.765Z,95707.00
2022-12-24T02:17:32.902Z,95705.00
2022-12-24T02:21:48.760Z,95724.00
2022-12-24T02:26:15.207Z,95725.00
2022-12-24T02:30:21.891Z,95719.00
2022-12-24T02:34:32.541Z,95729.00
2022-12-24T02:38:42.770Z,95738.00
2022-12-24T02:42:50.210Z,95729.00
2022-12-24T02:46:55.173Z,95744.00
2022-12-24T02:51:04.955Z,95743.00
2022-12-24T02:55:12.831Z,95745.00
2022-12-24T02:59:36.386Z,95759.00
2022-12-24T03:03:50.808Z,95752.00
2022-12-24T03:08:03.703Z,95742.00
2022-12-24T03:12:13.387Z,95755.00
2022-12-24T03:16:20.576Z,95772.00
2022-12-24T03:20:28.556Z,95771.00
2022-12-24T03:24:31.599Z,95788.00
2022-12-24T03:28:35.083Z,95781.00
2022-12-24T03:32:42.858Z,95786.00
2022-12-24T03:36:48.712Z,95784.00
2022-12-24T03:40:51.785Z,95783.00
2022-12-24T03:44:54.828Z,95779.00
2022-12-24T03:48:59.029Z,95785.00
2022-12-24T03:53:03.569Z,95785.00
2022-12-24T03:57:06.743Z,95797.00
2022-12-24T04:01:10.107Z,95812.00
2022-12-24T04:05:16.330Z,95811.00
2022-12-24T04:09:20.848Z,95821.00
2022-12-24T04:13:23.999Z,95820.00
2022-12-24T04:17:27.059Z,95827.00
2022-12-24T04:21:30.202Z,95837.00
2022-12-24T04:25:34.726Z,95848.00
2022-12-24T04:29:38.015Z,95839.00
2022-12-24T04:33:41.318Z,95836.00
2022-12-24T04:37:44.341Z,95835.00
2022-12-24T04:41:48.824Z,95833.00
2022-12-24T04:45:51.908Z,95836.00
2022-12-24T04:49:55.037Z,95847.00
2022-12-24T04:53:59.144Z,95847.00
2022-12-24T04:58:03.667Z,95848.00
2022-12-24T05:02:06.868Z,95852.00
2022-12-24T05:06:13.418Z,95859.00
2022-12-24T05:10:16.675Z,95855.00
2022-12-24T05:14:21.133Z,95859.00
2022-12-24T05:18:24.849Z,95862.00
2022-12-24T05:22:45.486Z,95868.00
2022-12-24T05:26:51.277Z,95866.00
2022-12-24T05:30:55.842Z,95869.00
2022-12-24T05:34:59.019Z,95880.00
2022-12-24T05:39:02.218Z,95886.00
2022-12-24T05:43:05.270Z,95893.00
2022-12-24T05:47:09.786Z,95896.00
2022-12-24T05:51:15.715Z,95907.00
2022-12-24T05:55:19.294Z,95910.00
2022-12-24T05:59:22.468Z,95916.00
2022-12-24T06:03:26.872Z,95922.00
2022-12-24T06:07:30.093Z,95928.00
2022-12-24T06:11:34.637Z,95929.00
2022-12-24T06:15:37.842Z,95926.00
2022-12-24T06:19:42.641Z,95928.00
2022-12-24T06:23:47.139Z,95935.00
2022-12-24T06:27:50.205Z,95940.00
2022-12-24T06:31:53.372Z,95947.00
2022-12-24T06:35:57.984Z,95944.00
2022-12-24T06:40:01.348Z,95941.00
2022-12-24T06:44:04.653Z,95958.00
2022-12-24T06:48:08.288Z,95975.00
2022-12-24T06:52:12.925Z,95979.00
2022-12-24T06:56:16.306Z,95976.00
2022-12-24T07:00:21.844Z,95988.00
2022-12-24T07:04:25.031Z,95994.00
2022-12-24T07:08:29.934Z,95995.00
2022-12-24T07:12:33.177Z,96000.00
2022-12-24T07:16:36.501Z,96016.00
2022-12-24T07:20:39.632Z,96021.00
2022-12-24T07:24:44.029Z,96025.00
2022-12-24T07:28:48.985Z,96043.00
2022-12-24T07:32:53.156Z,96024.00
2022-12-24T07:36:56.257Z,96036.00
2022-12-24T07:41:01.468Z,96048.00
2022-12-24T07:45:05.020Z,96052.00
2022-12-24T07:49:08.387Z,96040.00
2022-12-24T07:53:11.602Z,96048.00
2022-12-24T07:57:16.185Z,96062.00
2022-12-24T08:01:19.571Z,96050.00
2022-12-24T08:05:39.078Z,96059.00
2022-12-24T08:09:42.158Z,96059.00
2022-12-24T08:13:50.394Z,96059.00
2022-12-24T08:17:53.513Z,96066.00
2022-12-24T08:21:57.167Z,96062.00
2022-12-24T08:26:00.419Z,96074.00
2022-12-24T08:30:05.649Z,96074.00
2022-12-24T08:34:09.670Z,96061.00
2022-12-24T08:38:12.792Z,96072.00
2022-12-24T08:42:16.022Z,96052.00
2022-12-24T08:46:20.874Z,96056.00
2022-12-24T08:50:24.080Z,96072.00
2022-12-24T08:54:30.471Z,96087.00
2022-12-24T08:58:33.908Z,96093.00
2022-12-24T09:02:38.378Z,96100.00
2022-12-24T09:06:41.582Z,96117.00
2022-12-24T09:10:45.857Z,96117.00
2022-12-24T09:14:52.422Z,96130.00
2022-12-24T09:18:58.169Z,96146.00
2022-12-24T09:23:12.214Z,96141.00
2022-12-24T09:27:15.570Z,96141.00
2022-12-24T09:31:23.086Z,96145.00
2022-12-24T09:35:27.777Z,96151.00
2022-12-24T09:39:31.029Z,96153.00
2022-12-24T09:43:37.563Z,96172.00
2022-12-24T09:47:44.151Z,96177.00
2022-12-24T09:51:52.572Z,96179.00
2022-12-24T09:55:59.518Z,96180.00
2022-12-24T10:00:03.694Z,96192.00
2022-12-24T10:04:13.620Z,96190.00
2022-12-24T10:08:25.889Z,96186.00
2022-12-24T10:12:36.479Z,96170.00
2022-12-24T10:16:52.958Z,96175.00
2022-12-24T10:21:04.256Z,96175.00
2022-12-24T10:25:18.375Z,96176.00
2022-12-24T10:29:24.808Z,96179.00
2022-12-24T10:33:33.731Z,96185.00
2022-12-24T10:37:36.803Z,96189.00
2022-12-24T10:41:41.735Z,96195.00
2022-12-24T10:45:48.680Z,96194.00
2022-12-24T10:49:59.085Z,96194.00
2022-12-24T10:54:08.078Z,96201.00
2022-12-24T10:58:17.894Z,96195.00
2022-12-24T11:02:29.545Z,96186.00
2022-12-24T11:06:32.751Z,96182.00
2022-12-24T11:10:41.087Z,96185.00
2022-12-24T11:14:45.685Z,96197.00
2022-12-24T11:18:52.290Z,96197.00
2022-12-24T11:22:56.385Z,96206.00
2022-12-24T11:27:24.856Z,96204.00
2022-12-24T11:31:35.815Z,96189.00
2022-12-24T11:35:43.601Z,96204.00
2022-12-24T11:39:50.752Z,96202.00
2022-12-24T11:44:03.509Z,96197.00
2022-12-24T11:48:27.175Z,96189.00
2022-12-24T11:52:31.916Z,96179.00
2022-12-24T11:56:41.763Z,96184.00
2022-12-24T12:00:46.639Z,96167.00
2022-12-24T12:04:54.388Z,96179.00
2022-12-24T12:09:00.760Z,96173.00
2022-12-24T12:13:14.700Z,96186.00
2022-12-24T12:17:28.498Z,96187.00
2022-12-24T12:22:01.573Z,96201.00
2022-12-24T12:26:11.585Z,96214.00
2022-12-24T12:30:18.047Z,96207.00
2022-12-24T12:34:37.857Z,96192.00
2022-12-24T12:38:42.346Z,96217.00
2022-12-24T12:42:54.054Z,96195.00
2022-12-24T12:47:18.195Z,96203.00
2022-12-24T12:51:27.228Z,96202.00
2022-12-24T12:55:43.308Z,96203.00
2022-12-24T12:59:52.578Z,96202.00
2022-12-24T13:04:43.036Z,96213.00
2022-12-24T13:09:08.188Z,96221.00
2022-12-24T13:13:32.203Z,96212.00
2022-12-24T13:17:54.178Z,96219.00
2022-12-24T13:21:58.216Z,96233.00
2022-12-24T13:26:12.255Z,96239.00
2022-12-24T13:30:36.750Z,96248.00
2022-12-24T13:34:41.402Z,96248.00
2022-12-24T13:38:45.812Z,96252.00
2022-12-24T13:42:52.224Z,96261.00
2022-12-24T13:47:01.174Z,96264.00
2022-12-24T13:51:26.051Z,96270.00
2022-12-24T13:55:30.086Z,96264.00
2022-12-24T13:59:38.948Z,96267.00
2022-12-24T14:03:45.251Z,96264.00
2022-12-24T14:07:51.350Z,96264.00
2022-12-24T14:12:16.847Z,96271.00
2022-12-24T14:16:21.818Z,96275.00
2022-12-24T14:20:25.560Z,96278.00
2022-12-24T14:24:35.657Z,96277.00
2022-12-24T14:28:44.326Z,96288.00
2022-12-24T14:32:48.554Z,96294.00
2022-12-24T14:36:54.664Z,96277.00
2022-12-24T14:41:07.503Z,96289.00
2022-12-24T14:45:20.994Z,96290.00
2022-12-24T14:49:35.318Z,96302.00
2022-12-24T14:53:56.245Z,96301.00
2022-12-24T14:58:28.519Z,96308.00
2022-12-24T15:02:40.609Z,96314.00
2022-12-24T15:06:49.421Z,96326.00
2022-12-24T15:10:55.171Z,96329.00
2022-12-24T15:15:00.206Z,96321.00
2022-12-24T15:19:05.785Z,96308.00
2022-12-24T15:23:20.161Z,96318.00
2022-12-24T15:27:25.172Z,96321.00
2022-12-24T15:31:31.279Z,96327.00
2022-12-24T15:35:50.538Z,96318.00
2022-12-24T15:39:56.855Z,96325.00
2022-12-24T15:44:04.326Z,96319.00
2022-12-24T15:48:12.523Z,96320.00
2022-12-24T15:52:17.915Z,96314.00
2022-12-24T15:56:32.483Z,96319.00
2022-12-24T16:00:35.639Z,96325.00
2022-12-24T16:04:40.095Z,96323.00
2022-12-24T16:08:44.148Z,96323.00
2022-12-24T16:12:47.249Z,96320.00
2022-12-24T16:16:53.125Z,96315.00
2022-12-24T16:20:58.420Z,96330.00
2022-12-24T16:25:02.693Z,96339.00
2022-12-24T16:29:05.961Z,96351.00
2022-12-24T16:33:15.466Z,96356.00
2022-12-24T16:37:20.100Z,96370.00
2022-12-24T16:41:23.627Z,96370.00
2022-12-24T16:45:26.835Z,96370.00
2022-12-24T16:49:30.939Z,96370.00
2022-12-24T16:53:35.403Z,96370.00
2022-12-24T16:57:46.609Z,96381.00
2022-12-24T17:01:51.876Z,96391.00
2022-12-24T17:05:55.232Z,96385.00
2022-12-24T17:09:59.812Z,96392.00
2022-12-24T17:14:08.050Z,96397.00
2022-12-24T17:18:11.554Z,96397.00
2022-12-24T17:22:14.587Z,96399.00
2022-12-24T17:26:19.164Z,96406.00
2022-12-24T17:30:22.307Z,96408.00
2022-12-24T17:34:25.517Z,96411.00
2022-12-24T17:38:28.716Z,96404.00
2022-12-24T17:42:33.205Z,96410.00
2022-12-24T17:46:36.224Z,96410.00
2022-12-24T17:50:40.893Z,96405.00
2022-12-24T17:54:44.005Z,96397.00
2022-12-24T17:58:48.595Z,96402.00
2022-12-24T18:02:51.991Z,96402.00
2022-12-24T18:07:02.081Z,96396.00
2022-12-24T18:11:13.275Z,96408.00
2022-12-24T18:15:21.224Z,96419.00
2022-12-24T18:19:24.259Z,96422.00
2022-12-24T18:23:27.280Z,96413.00
2022-12-24T18:27:30.372Z,96415.00
2022-12-24T18:31:35.253Z,96430.00
2022-12-24T18:35:46.499Z,96429.00
2022-12-24T18:39:49.657Z,96439.00
2022-12-24T18:43:53.626Z,96435.00
2022-12-24T18:47:58.184Z,96441.00
2022-12-24T18:52:03.837Z,96441.00
2022-12-24T18:56:08.615Z,96442.00
2022-12-24T19:00:12.996Z,96447.00
2022-12-24T19:04:17.641Z,96455.00
2022-12-24T19:08:55.730Z,96455.00
2022-12-24T19:12:43.979Z,96448.00
2022-12-24T19:16:47.412Z,96450.00
2022-12-24T19:20:52.468Z,96460.00
2022-12-24T19:24:55.790Z,96464.00
2022-12-24T19:28:58.854Z,96463.00
2022-12-24T19:33:02.050Z,96468.00
2022-12-24T19:37:06.668Z,96454.00
2022-12-24T19:41:13.417Z,96455.00
2022-12-24T19:45:16.884Z,96454.00
2022-12-24T19:49:22.862Z,96447.00
2022-12-24T19:53:27.448Z,96444.00
2022-12-24T19:57:30.546Z,96451.00
2022-12-24T20:01:36.173Z,96458.00
2022-12-24T20:05:41.689Z,96460.00
2022-12-24T20:09:46.433Z,96463.00
2022-12-24T20:13:49.634Z,96461.00
2022-12-24T20:17:59.612Z,96453.00
2022-12-24T20:22:02.846Z,96468.00
2022-12-24T20:26:08.562Z,96487.00
2022-12-24T20:30:12.556Z,96491.00
2022-12-24T20:34:15.817Z,96491.00
2022-12-24T20:38:18.985Z,96490.00
2022-12-24T20:42:23.565Z,96483.00
2022-12-24T20:46:27.077Z,96490.00
2022-12-24T20:50:30.210Z,96511.00
2022-12-24T20:54:33.514Z,96498.00
2022-12-24T20:58:38.065Z,96497.00
2022-12-24T21:02:41.384Z,96506.00
2022-12-24T21:06:44.801Z,96508.00
2022-12-24T21:10:48.220Z,96501.00
2022-12-24T21:14:52.840Z,96497.00
2022-12-24T21:18:55.981Z,96499.00
2022-12-24T21:23:01.254Z,96501.00
2022-12-24T21:27:04.840Z,96514.00
2022-12-24T21:31:11.836Z,96510.00
2022-12-24T21:35:15.462Z,96511.00
2022-12-24T21:39:18.588Z,96518.00
2022-12-24T21:43:21.793Z,96516.00
2022-12-24T21:47:26.608Z,96518.00
2022-12-24T21:51:29.053Z,96526.00
2022-12-24T21:55:38.422Z,96525.00
2022-12-24T21:59:41.617Z,96520.00
2022-12-24T22:03:49.382Z,96509.00
2022-12-24T22:08:10.233Z,96516.00
2022-12-24T22:12:13.451Z,96512.00
2022-12-24T22:16:16.687Z,96517.00
2022-12-24T22:20:21.241Z,96510.00
2022-12-24T22:24:25.783Z,96514.00
2022-12-24T22:28:30.000Z,96505.00
2022-12-24T22:32:34.129Z,96496.00
2022-12-24T22:36:38.884Z,96503.00
2022-12-24T22:40:41.925Z,96504.00
2022-12-24T22:44:45.033Z,96501.00
2022-12-24T22:48:48.141Z,96495.00
2022-12-24T22:52:54.021Z,96490.00
2022-12-24T22:56:57.183Z,96492.00
2022-12-24T23:01:01.042Z,96495.00
2022-12-24T23:05:04.469Z,96501.00
2022-12-24T23:09:11.164Z,96505.00
2022-12-24T23:13:31.909Z,96502.00
2022-12-24T23:17:34.939Z,96505.00
2022-12-24T23:21:38.956Z,96508.00
2022-12-24T23:25:43.568Z,96503.00
2022-12-24T23:29:46.795Z,96501.00
2022-12-24T23:33:50.533Z,96494.00
2022-12-24T23:37:53.663Z,96483.00
2022-12-24T23:41:58.123Z,96497.00
2022-12-24T23:46:01.477Z,96500.00
2022-12-24T23:50:05.081Z,96510.00
2022-12-24T23:54:08.229Z,96508.00
2022-12-24T23:58:15.329Z,96519.00
